createdAt,value
2023-02-06T00:00:44.428Z,8.30
2023-02-06T00:03:10.920Z,6.60
2023-02-06T00:05:37.625Z,6.55
2023-02-06T00:08:04.648Z,8.25
2023-02-06T00:10:31.038Z,6.07
2023-02-06T00:12:57.421Z,6.05
2023-02-06T00:15:23.803Z,7.53
2023-02-06T00:17:50.250Z,7.53
2023-02-06T00:20:16.753Z,6.57
2023-02-06T00:22:43.236Z,5.75
2023-02-06T00:25:09.642Z,5.18
2023-02-06T00:27:36.343Z,6.72
2023-02-06T00:30:04.382Z,5.80
2023-02-06T00:32:31.047Z,6.55
2023-02-06T00:34:57.498Z,6.13
2023-02-06T00:37:23.864Z,7.40
2023-02-06T00:39:50.245Z,6.65
2023-02-06T00:42:16.737Z,5.60
2023-02-06T00:44:43.110Z,6.65
2023-02-06T00:47:09.504Z,6.07
2023-02-06T00:49:35.892Z,6.35
2023-02-06T00:52:02.269Z,5.90
2023-02-06T00:54:28.656Z,5.28
2023-02-06T00:56:55.022Z,7.57
2023-02-06T00:59:21.437Z,5.45
2023-02-06T01:01:47.829Z,5.60
2023-02-06T01:04:14.223Z,6.80
2023-02-06T01:06:40.604Z,6.38
2023-02-06T01:09:06.990Z,5.95
2023-02-06T01:11:35.040Z,7.13
2023-02-06T01:14:01.814Z,8.18
2023-02-06T01:16:28.279Z,5.43
2023-02-06T01:18:54.705Z,6.78
2023-02-06T01:21:23.960Z,6.47
2023-02-06T01:23:52.744Z,6.22
2023-02-06T01:26:21.947Z,8.80
2023-02-06T01:28:49.928Z,7.82
2023-02-06T01:31:17.639Z,6.55
2023-02-06T01:33:45.427Z,7.82
2023-02-06T01:36:12.863Z,7.63
2023-02-06T01:38:39.536Z,7.38
2023-02-06T01:41:06.679Z,6.90
2023-02-06T01:43:36.048Z,6.93
2023-02-06T01:46:02.488Z,7.40
2023-02-06T01:48:50.149Z,7.38
2023-02-06T01:51:22.795Z,8.02
2023-02-06T01:53:52.387Z,7.53
2023-02-06T01:56:19.573Z,7.63
2023-02-06T01:58:55.291Z,7.43
2023-02-06T02:01:22.104Z,6.85
2023-02-06T02:03:51.557Z,5.72
2023-02-06T02:06:24.303Z,5.82
2023-02-06T02:08:53.918Z,7.93
2023-02-06T02:11:23.996Z,7.25
2023-02-06T02:13:51.386Z,7.72
2023-02-06T02:16:48.593Z,7.72
2023-02-06T02:19:14.901Z,6.95
2023-02-06T02:21:41.202Z,6.95
2023-02-06T02:24:28.775Z,7.00
2023-02-06T02:27:34.210Z,6.65
2023-02-06T02:30:31.655Z,7.70
2023-02-06T02:33:16.229Z,7.75
2023-02-06T02:35:51.169Z,7.10
2023-02-06T02:38:20.468Z,7.15
2023-02-06T02:40:53.578Z,7.07
2023-02-06T02:43:27.237Z,7.90
2023-02-06T02:46:00.235Z,6.60
2023-02-06T02:48:39.343Z,7.82
2023-02-06T02:51:06.064Z,6.90
2023-02-06T02:53:32.447Z,6.18
2023-02-06T02:56:00.124Z,6.18
2023-02-06T02:58:31.234Z,7.10
2023-02-06T03:01:03.239Z,8.40
2023-02-06T03:03:30.763Z,7.05
2023-02-06T03:06:30.558Z,6.80
2023-02-06T03:08:59.826Z,7.35
2023-02-06T03:11:26.988Z,6.97
2023-02-06T03:14:10.490Z,7.15
2023-02-06T03:16:40.787Z,7.38
2023-02-06T03:19:13.472Z,6.95
2023-02-06T03:21:41.085Z,6.72
2023-02-06T03:24:10.961Z,7.78
2023-02-06T03:26:38.486Z,6.72
2023-02-06T03:29:08.963Z,7.05
2023-02-06T03:31:39.947Z,8.15
2023-02-06T03:34:24.403Z,7.28
2023-02-06T03:36:51.710Z,6.80
2023-02-06T03:39:18.144Z,6.13
2023-02-06T03:41:45.893Z,8.15
2023-02-06T03:44:17.070Z,8.10
2023-02-06T03:46:44.172Z,7.20
2023-02-06T03:49:12.806Z,7.35
2023-02-06T03:51:43.982Z,7.80
2023-02-06T03:54:11.873Z,7.03
2023-02-06T03:56:43.625Z,7.57
2023-02-06T03:59:10.208Z,6.72
2023-02-06T04:01:41.414Z,7.38
2023-02-06T04:04:07.806Z,8.50
2023-02-06T04:06:34.210Z,6.75
2023-02-06T04:09:00.585Z,6.22
2023-02-06T04:11:26.967Z,6.72
2023-02-06T04:13:53.352Z,7.55
2023-02-06T04:16:19.749Z,6.88
2023-02-06T04:18:46.140Z,6.63
2023-02-06T04:21:12.532Z,7.82
2023-02-06T04:23:38.914Z,7.93
2023-02-06T04:26:05.273Z,7.60
2023-02-06T04:28:31.672Z,8.38
2023-02-06T04:30:59.686Z,6.95
2023-02-06T04:33:26.151Z,6.07
2023-02-06T04:35:52.538Z,7.28
2023-02-06T04:38:18.935Z,7.32
2023-02-06T04:40:45.321Z,7.22
2023-02-06T04:43:11.754Z,7.57
2023-02-06T04:45:38.548Z,8.85
2023-02-06T04:48:05.235Z,6.90
2023-02-06T04:50:33.109Z,7.28
2023-02-06T04:52:59.719Z,9.48
2023-02-06T04:55:26.084Z,7.63
2023-02-06T04:57:52.481Z,8.57
2023-02-06T05:00:18.913Z,7.45
2023-02-06T05:02:45.351Z,6.70
2023-02-06T05:05:11.797Z,7.75
2023-02-06T05:07:38.215Z,7.97
2023-02-06T05:10:04.768Z,7.40
2023-02-06T05:12:31.172Z,8.27
2023-02-06T05:14:57.556Z,7.20
2023-02-06T05:17:24.055Z,7.80
2023-02-06T05:19:50.444Z,7.47
2023-02-06T05:22:16.924Z,8.70
2023-02-06T05:24:43.300Z,12.18
2023-02-06T05:27:09.699Z,9.60
2023-02-06T05:29:36.088Z,8.30
2023-02-06T05:32:02.519Z,8.10
2023-02-06T05:34:28.949Z,9.98
2023-02-06T05:36:55.354Z,12.20
2023-02-06T05:39:22.062Z,8.88
2023-02-06T05:41:48.438Z,11.90
2023-02-06T05:44:14.808Z,12.07
2023-02-06T05:46:41.219Z,9.70
2023-02-06T05:49:07.650Z,10.50
2023-02-06T05:51:34.027Z,10.32
2023-02-06T05:54:00.474Z,10.70
2023-02-06T05:56:26.921Z,11.55
2023-02-06T05:58:53.438Z,13.02
2023-02-06T06:01:20.167Z,11.70
2023-02-06T06:03:46.584Z,9.55
2023-02-06T06:06:13.009Z,10.05
2023-02-06T06:08:39.535Z,12.50
2023-02-06T06:11:07.188Z,11.02
2023-02-06T06:13:33.632Z,9.75
2023-02-06T06:16:00.038Z,10.32
2023-02-06T06:18:26.541Z,10.82
2023-02-06T06:20:53.509Z,9.27
2023-02-06T06:23:19.922Z,11.68
2023-02-06T06:25:47.272Z,12.95
2023-02-06T06:28:13.911Z,11.93
2023-02-06T06:30:40.427Z,10.85
2023-02-06T06:33:06.826Z,16.42
2023-02-06T06:35:33.731Z,15.13
2023-02-06T06:38:00.184Z,13.00
2023-02-06T06:40:26.578Z,13.05
2023-02-06T06:42:52.980Z,13.98
2023-02-06T06:45:19.415Z,15.15
2023-02-06T06:47:46.056Z,15.48
2023-02-06T06:50:12.481Z,12.05
2023-02-06T06:52:38.849Z,11.65
2023-02-06T06:55:05.481Z,11.95
2023-02-06T06:57:32.509Z,11.57
2023-02-06T06:59:59.161Z,10.90
2023-02-06T07:02:25.670Z,11.10
2023-02-06T07:04:52.078Z,10.52
2023-02-06T07:07:18.478Z,13.13
2023-02-06T07:09:44.883Z,12.57
2023-02-06T07:12:11.274Z,13.40
2023-02-06T07:14:37.715Z,11.63
2023-02-06T07:17:04.099Z,11.65
2023-02-06T07:19:30.488Z,11.70
2023-02-06T07:21:56.858Z,11.88
2023-02-06T07:24:23.244Z,12.27
2023-02-06T07:26:49.651Z,12.10
2023-02-06T07:29:16.046Z,11.27
2023-02-06T07:31:42.493Z,11.27
2023-02-06T07:34:09.036Z,11.35
2023-02-06T07:36:35.607Z,12.07
2023-02-06T07:39:03.210Z,10.90
2023-02-06T07:41:29.596Z,11.80
2023-02-06T07:43:55.985Z,12.30
2023-02-06T07:46:22.529Z,11.57
2023-02-06T07:48:48.935Z,12.93
2023-02-06T07:51:15.331Z,15.43
2023-02-06T07:53:41.718Z,15.27
2023-02-06T07:56:13.141Z,15.50
2023-02-06T07:58:39.598Z,18.83
2023-02-06T08:01:06.560Z,15.60
2023-02-06T08:03:33.057Z,14.23
2023-02-06T08:05:59.460Z,14.75
2023-02-06T08:08:25.929Z,12.10
2023-02-06T08:10:52.344Z,14.85
2023-02-06T08:13:18.717Z,14.85
2023-02-06T08:15:45.117Z,15.18
2023-02-06T08:18:11.509Z,14.73
2023-02-06T08:20:37.892Z,17.13
2023-02-06T08:23:04.314Z,16.77
2023-02-06T08:25:30.684Z,16.15
2023-02-06T08:27:57.110Z,15.73
2023-02-06T08:30:23.663Z,17.83
2023-02-06T08:32:50.152Z,15.82
2023-02-06T08:35:16.717Z,20.80
2023-02-06T08:37:43.087Z,18.65
2023-02-06T08:40:10.151Z,18.02
2023-02-06T08:42:36.555Z,21.90
2023-02-06T08:45:03.082Z,15.82
2023-02-06T08:47:29.548Z,13.00
2023-02-06T08:49:55.976Z,14.27
2023-02-06T08:52:23.212Z,16.00
2023-02-06T08:54:51.499Z,15.85
2023-02-06T08:57:17.889Z,16.73
2023-02-06T08:59:44.269Z,16.23
2023-02-06T09:02:11.620Z,15.48
2023-02-06T09:04:39.042Z,15.90
2023-02-06T09:07:05.438Z,15.73
2023-02-06T09:09:31.807Z,13.77
2023-02-06T09:12:03.172Z,12.25
2023-02-06T09:14:30.342Z,11.02
2023-02-06T09:16:59.589Z,12.55
2023-02-06T09:19:26.392Z,11.75
2023-02-06T09:21:53.137Z,13.00
2023-02-06T09:24:19.828Z,14.38
2023-02-06T09:26:58.895Z,14.50
2023-02-06T09:29:28.713Z,12.43
2023-02-06T09:31:57.077Z,13.55
2023-02-06T09:34:24.316Z,12.30
2023-02-06T09:36:50.805Z,10.15
2023-02-06T09:39:17.162Z,10.20
2023-02-06T09:41:46.311Z,11.98
2023-02-06T09:44:31.066Z,11.10
2023-02-06T09:46:59.448Z,16.05
2023-02-06T09:49:38.962Z,12.35
2023-02-06T09:52:26.059Z,12.07
2023-02-06T09:54:58.982Z,11.40
2023-02-06T09:57:34.100Z,11.93
2023-02-06T10:00:04.630Z,12.10
2023-02-06T10:02:30.969Z,12.90
2023-02-06T10:05:07.794Z,12.65
2023-02-06T10:08:09.663Z,14.57
2023-02-06T10:10:55.459Z,16.60
2023-02-06T10:14:06.508Z,15.55
2023-02-06T10:16:32.906Z,14.13
2023-02-06T10:19:03.610Z,13.40
2023-02-06T10:21:37.498Z,14.18
2023-02-06T10:24:42.258Z,14.13
2023-02-06T10:27:13.614Z,13.93
2023-02-06T10:29:41.278Z,15.40
2023-02-06T10:32:46.400Z,14.70
2023-02-06T10:35:27.978Z,14.27
2023-02-06T10:37:59.068Z,14.60
2023-02-06T10:40:34.355Z,15.20
2023-02-06T10:43:16.745Z,13.30
2023-02-06T10:48:31.547Z,16.38
2023-02-06T10:51:16.049Z,15.52
2023-02-06T10:53:50.083Z,14.15
2023-02-06T10:56:19.108Z,15.50
2023-02-06T10:58:55.988Z,15.55
2023-02-06T11:01:26.537Z,29.48
2023-02-06T11:04:03.700Z,42.33
2023-02-06T11:06:30.597Z,48.22
2023-02-06T11:08:57.137Z,44.53
2023-02-06T11:11:24.416Z,47.33
2023-02-06T11:13:55.544Z,47.33
2023-02-06T11:16:25.462Z,42.85
2023-02-06T11:18:52.406Z,30.35
2023-02-06T11:21:47.891Z,21.58
2023-02-06T11:24:16.917Z,21.17
2023-02-06T11:26:47.603Z,21.63
2023-02-06T11:29:22.996Z,26.92
2023-02-06T11:31:56.899Z,32.70
2023-02-06T11:34:30.395Z,31.88
2023-02-06T11:37:02.181Z,24.02
2023-02-06T11:39:34.707Z,20.73
2023-02-06T11:42:28.319Z,16.42
2023-02-06T11:44:54.698Z,16.05
2023-02-06T11:47:37.701Z,14.60
2023-02-06T11:50:34.488Z,13.60
2023-02-06T11:53:08.297Z,11.80
2023-02-06T11:55:36.601Z,11.52
2023-02-06T11:58:06.120Z,11.40
2023-02-06T12:00:33.444Z,11.95
2023-02-06T12:02:59.833Z,13.32
2023-02-06T12:05:29.104Z,13.85
2023-02-06T12:08:02.331Z,13.55
2023-02-06T12:10:32.396Z,13.10
2023-02-06T12:13:09.102Z,15.10
2023-02-06T12:15:46.560Z,16.35
2023-02-06T12:18:17.001Z,15.60
2023-02-06T12:20:53.158Z,16.00
2023-02-06T12:23:37.834Z,17.17
2023-02-06T12:26:08.431Z,17.45
2023-02-06T12:28:57.258Z,16.63
2023-02-06T12:31:39.981Z,16.52
2023-02-06T12:34:16.468Z,16.58
2023-02-06T12:36:58.656Z,16.27
2023-02-06T12:39:25.111Z,16.90
2023-02-06T12:42:29.045Z,17.80
2023-02-06T12:44:57.295Z,16.58
2023-02-06T12:47:32.566Z,17.33
2023-02-06T12:50:09.527Z,17.25
2023-02-06T12:52:47.850Z,18.10
2023-02-06T12:55:29.672Z,17.48
2023-02-06T12:57:56.558Z,16.67
2023-02-06T13:01:03.254Z,16.80
2023-02-06T13:03:42.389Z,16.13
2023-02-06T13:06:19.193Z,14.88
2023-02-06T13:08:47.217Z,14.57
2023-02-06T13:11:25.485Z,12.73
2023-02-06T13:14:00.718Z,11.90
2023-02-06T13:17:00.933Z,12.95
2023-02-06T13:19:51.349Z,15.75
2023-02-06T13:22:19.315Z,12.80
2023-02-06T13:24:50.673Z,14.77
2023-02-06T13:27:18.716Z,13.07
2023-02-06T13:29:47.383Z,12.60
2023-02-06T13:32:22.684Z,11.95
2023-02-06T13:34:48.966Z,12.82
2023-02-06T13:37:37.132Z,12.80
2023-02-06T13:40:26.501Z,14.48
2023-02-06T13:43:03.445Z,12.52
2023-02-06T13:45:36.534Z,13.50
2023-02-06T13:48:21.929Z,13.63
2023-02-06T13:51:01.902Z,13.85
2023-02-06T13:53:40.132Z,16.10
2023-02-06T13:56:21.478Z,16.15
2023-02-06T13:58:50.950Z,14.77
2023-02-06T14:01:22.797Z,18.83
2023-02-06T14:03:50.981Z,20.48
2023-02-06T14:06:56.742Z,19.70
2023-02-06T14:09:44.863Z,19.35
2023-02-06T14:12:33.550Z,18.25
2023-02-06T14:15:07.345Z,17.50
2023-02-06T14:18:09.402Z,16.27
2023-02-06T14:20:38.483Z,19.75
2023-02-06T14:23:21.434Z,17.73
2023-02-06T14:26:03.948Z,17.05
2023-02-06T14:28:34.330Z,16.20
2023-02-06T14:31:25.509Z,15.93
2023-02-06T14:34:05.123Z,15.90
2023-02-06T14:36:40.738Z,16.10
2023-02-06T14:39:36.175Z,15.82
2023-02-06T14:42:14.871Z,14.80
2023-02-06T14:44:42.223Z,14.43
2023-02-06T14:47:19.278Z,14.20
2023-02-06T14:49:46.613Z,11.70
2023-02-06T14:52:18.942Z,13.75
2023-02-06T14:54:45.307Z,13.80
2023-02-06T14:57:31.475Z,16.05
2023-02-06T15:00:02.530Z,15.35
2023-02-06T15:02:34.605Z,15.68
2023-02-06T15:05:02.276Z,16.98
2023-02-06T15:07:34.557Z,15.95
2023-02-06T15:10:14.271Z,15.30
2023-02-06T15:12:41.441Z,15.23
2023-02-06T15:15:18.394Z,14.30
2023-02-06T15:17:56.381Z,10.60
2023-02-06T15:20:35.960Z,9.57
2023-02-06T15:23:17.599Z,10.45
2023-02-06T15:25:44.504Z,10.55
2023-02-06T15:28:18.697Z,7.53
2023-02-06T15:30:45.296Z,8.77
2023-02-06T15:33:19.370Z,7.80
2023-02-06T15:35:52.799Z,8.95
2023-02-06T15:38:19.853Z,7.68
2023-02-06T15:40:49.202Z,8.15
2023-02-06T15:43:19.915Z,8.50
2023-02-06T15:45:47.476Z,7.28
2023-02-06T15:48:21.103Z,8.73
2023-02-06T15:50:59.590Z,7.88
2023-02-06T15:53:33.703Z,8.70
2023-02-06T15:56:00.658Z,9.27
2023-02-06T15:58:27.190Z,9.23
2023-02-06T16:00:56.018Z,8.90
2023-02-06T16:03:27.564Z,10.57
2023-02-06T16:05:56.259Z,9.20
2023-02-06T16:08:34.700Z,9.70
2023-02-06T16:11:26.664Z,9.77
2023-02-06T16:13:53.252Z,9.43
2023-02-06T16:16:22.163Z,9.23
2023-02-06T16:18:51.954Z,10.48
2023-02-06T16:21:18.335Z,10.93
2023-02-06T16:24:03.189Z,11.38
2023-02-06T16:26:31.938Z,11.75
2023-02-06T16:29:13.470Z,10.27
2023-02-06T16:31:42.474Z,9.38
2023-02-06T16:34:42.778Z,9.95
2023-02-06T16:37:20.692Z,10.43
2023-02-06T16:39:47.408Z,11.60
2023-02-06T16:42:25.684Z,11.40
2023-02-06T16:44:54.358Z,10.63
2023-02-06T16:47:21.386Z,10.80
2023-02-06T16:49:51.848Z,11.35
2023-02-06T16:52:22.694Z,11.02
2023-02-06T16:54:49.314Z,11.45
2023-02-06T16:57:36.139Z,10.80
2023-02-06T17:00:05.243Z,11.63
2023-02-06T17:02:31.630Z,11.38
2023-02-06T17:04:58.093Z,11.23
2023-02-06T17:07:26.182Z,9.35
2023-02-06T17:09:54.047Z,9.55
2023-02-06T17:12:21.537Z,11.10
2023-02-06T17:14:48.726Z,10.10
2023-02-06T17:17:18.092Z,12.43
2023-02-06T17:19:45.268Z,11.15
2023-02-06T17:22:11.967Z,34.15
2023-02-06T17:24:39.056Z,45.25
2023-02-06T17:27:07.305Z,47.90
2023-02-06T17:29:34.180Z,22.95
2023-02-06T17:32:00.863Z,14.73
2023-02-06T17:34:27.470Z,15.52
2023-02-06T17:36:54.291Z,14.93
2023-02-06T17:39:21.165Z,16.02
2023-02-06T17:41:48.691Z,16.85
2023-02-06T17:44:17.798Z,15.82
2023-02-06T17:46:48.517Z,19.73
2023-02-06T17:49:16.024Z,23.08
2023-02-06T17:51:43.593Z,15.40
2023-02-06T17:54:10.748Z,19.38
2023-02-06T17:56:37.440Z,21.23
2023-02-06T17:59:04.386Z,19.25
2023-02-06T18:01:30.807Z,16.50
2023-02-06T18:03:57.463Z,16.88
2023-02-06T18:06:23.854Z,18.45
2023-02-06T18:08:50.444Z,17.08
2023-02-06T18:11:19.153Z,17.88
2023-02-06T18:13:46.997Z,16.13
2023-02-06T18:16:25.069Z,15.98
2023-02-06T18:18:51.620Z,17.20
2023-02-06T18:21:19.346Z,17.55
2023-02-06T18:23:46.582Z,18.55
2023-02-06T18:26:13.065Z,15.95
2023-02-06T18:28:40.765Z,17.75
2023-02-06T18:31:26.975Z,17.40
2023-02-06T18:33:54.720Z,19.27
2023-02-06T18:36:21.115Z,21.23
2023-02-06T18:38:47.498Z,20.30
2023-02-06T18:41:39.764Z,21.20
2023-02-06T18:44:07.941Z,19.45
2023-02-06T18:46:34.854Z,19.42
2023-02-06T18:49:01.542Z,19.75
2023-02-06T18:51:29.025Z,20.35
2023-02-06T18:53:55.396Z,18.42
2023-02-06T18:56:21.826Z,18.63
2023-02-06T18:58:48.216Z,18.73
2023-02-06T19:01:24.532Z,19.60
2023-02-06T19:03:52.086Z,19.15
2023-02-06T19:06:32.041Z,18.48
2023-02-06T19:08:59.038Z,21.05
2023-02-06T19:11:26.034Z,21.67
2023-02-06T19:13:52.455Z,19.13
2023-02-06T19:16:19.718Z,19.10
2023-02-06T19:18:48.306Z,20.55
2023-02-06T19:21:20.041Z,20.20
2023-02-06T19:23:47.993Z,18.48
2023-02-06T19:26:16.794Z,21.88
2023-02-06T19:28:43.542Z,21.50
2023-02-06T19:31:11.394Z,20.45
2023-02-06T19:33:39.904Z,23.13
2023-02-06T19:36:12.158Z,22.70
2023-02-06T19:41:09.866Z,22.45
2023-02-06T19:43:36.793Z,22.50
2023-02-06T19:46:05.133Z,20.67
2023-02-06T19:48:31.884Z,22.95
2023-02-06T19:51:06.704Z,20.23
2023-02-06T19:53:34.206Z,19.38
2023-02-06T19:56:01.605Z,21.27
2023-02-06T19:58:30.854Z,20.15
2023-02-06T20:01:17.587Z,23.95
2023-02-06T20:03:44.336Z,52.42
2023-02-06T20:06:12.427Z,51.92
2023-02-06T20:08:41.667Z,33.83
2023-02-06T20:11:13.940Z,25.23
2023-02-06T20:16:16.896Z,40.63
2023-02-06T20:18:43.666Z,39.80
2023-02-06T20:21:29.383Z,28.70
2023-02-06T20:23:57.827Z,25.90
2023-02-06T20:26:26.620Z,28.05
2023-02-06T20:28:53.501Z,24.95
2023-02-06T20:31:20.197Z,25.17
2023-02-06T20:33:47.225Z,24.45
2023-02-06T20:36:16.256Z,22.42
2023-02-06T20:38:46.805Z,24.73
2023-02-06T20:41:13.298Z,22.50
2023-02-06T20:43:40.876Z,22.70
2023-02-06T20:46:08.031Z,22.00
2023-02-06T20:48:35.671Z,23.02
2023-02-06T20:51:03.953Z,22.10
2023-02-06T20:53:31.310Z,23.70
2023-02-06T20:55:58.034Z,23.08
2023-02-06T20:58:25.816Z,22.98
2023-02-06T21:00:52.774Z,21.85
2023-02-06T21:03:19.240Z,22.85
2023-02-06T21:05:54.830Z,22.65
2023-02-06T21:08:21.260Z,24.38
2023-02-06T21:10:49.550Z,25.85
2023-02-06T21:13:16.050Z,22.23
2023-02-06T21:15:43.221Z,21.30
2023-02-06T21:18:09.642Z,20.75
2023-02-06T21:20:36.293Z,21.75
2023-02-06T21:23:02.866Z,24.83
2023-02-06T21:25:29.277Z,25.40
2023-02-06T21:27:55.725Z,33.95
2023-02-06T21:30:22.113Z,34.63
2023-02-06T21:32:48.529Z,31.50
2023-02-06T21:35:15.013Z,33.42
2023-02-06T21:37:41.417Z,35.85
2023-02-06T21:40:08.211Z,51.08
2023-02-06T21:42:34.731Z,38.47
2023-02-06T21:45:01.239Z,36.75
2023-02-06T21:47:27.660Z,39.58
2023-02-06T21:49:54.128Z,30.55
2023-02-06T21:52:20.716Z,25.90
2023-02-06T21:54:47.113Z,23.88
2023-02-06T21:57:13.507Z,23.70
2023-02-06T21:59:40.853Z,25.35
2023-02-06T22:02:07.357Z,25.00
2023-02-06T22:04:33.862Z,27.27
2023-02-06T22:07:00.239Z,26.90
2023-02-06T22:09:26.690Z,25.90
2023-02-06T22:11:53.952Z,27.25
2023-02-06T22:14:20.339Z,25.02
2023-02-06T22:16:46.800Z,24.58
2023-02-06T22:19:14.237Z,24.27
2023-02-06T22:21:40.677Z,24.85
2023-02-06T22:24:08.225Z,26.42
2023-02-06T22:26:38.372Z,27.92
2023-02-06T22:29:06.326Z,25.95
2023-02-06T22:31:33.959Z,23.10
2023-02-06T22:34:00.791Z,24.95
2023-02-06T22:36:30.134Z,23.75
2023-02-06T22:39:02.666Z,23.20
2023-02-06T22:41:30.048Z,23.58
2023-02-06T22:43:56.572Z,22.73
2023-02-06T22:46:41.182Z,23.38
2023-02-06T22:49:08.829Z,22.08
2023-02-06T22:51:36.354Z,21.30
2023-02-06T22:54:03.960Z,23.10
2023-02-06T22:56:35.872Z,22.25
2023-02-06T22:59:10.199Z,23.05
2023-02-06T23:01:51.130Z,24.10
2023-02-06T23:04:19.852Z,24.60
2023-02-06T23:06:47.064Z,28.80
2023-02-06T23:09:16.699Z,27.67
2023-02-06T23:11:43.713Z,28.83
2023-02-06T23:14:11.776Z,24.65
2023-02-06T23:16:38.432Z,26.25
2023-02-06T23:19:05.986Z,23.90
2023-02-06T23:21:35.670Z,24.83
2023-02-06T23:24:02.070Z,22.73
2023-02-06T23:26:28.954Z,24.92
2023-02-06T23:28:57.431Z,23.92
2023-02-06T23:31:24.584Z,24.58
2023-02-06T23:33:51.004Z,24.38
2023-02-06T23:36:19.822Z,23.20
2023-02-06T23:38:47.777Z,24.08
2023-02-06T23:41:25.886Z,27.75
2023-02-06T23:43:53.785Z,26.48
2023-02-06T23:46:20.802Z,25.02
2023-02-06T23:48:48.346Z,24.30
2023-02-06T23:51:15.840Z,23.08
2023-02-06T23:53:42.282Z,21.38
2023-02-06T23:56:13.590Z,23.17
2023-02-06T23:58:40.504Z,23.73
